Time;durP1;ratioP1;P1;durP2;ratioP2;P2;SDS_P1;SDS_P2;PMS_P1;PMS_P2;Temp;Humidity;BMP_temperature;BMP_pressure;BME280_temperature;BME280_humidity;BME280_pressure;Samples;Min_cycle;Max_cycle;Signal;HPM_P1;HPM_P2
2024/01/29 00:02:08;;;;;;;4.88;4.38;;;;;;;;;;5070154;28;20426;-63
2024/01/29 00:04:34;;;;;;;8.37;4.70;;;;;;;;;;5069154;28;20492;-63
2024/01/29 00:06:59;;;;;;;6.22;4.53;;;;;;;;;;5070044;28;20451;-63
2024/01/29 00:09:24;;;;;;;6.90;4.47;;;;;;;;;;5068721;28;20116;-63
2024/01/29 00:11:49;;;;;;;8.77;5.97;;;;;;;;;;5070131;28;20450;-63
2024/01/29 00:14:15;;;;;;;4.95;4.18;;;;;;;;;;5069023;28;20993;-63
2024/01/29 00:16:40;;;;;;;7.30;5.65;;;;;;;;;;5070235;28;20017;-63
2024/01/29 00:19:05;;;;;;;6.67;4.93;;;;;;;;;;5068543;28;20028;-63
2024/01/29 00:21:30;;;;;;;8.48;4.10;;;;;;;;;;5070427;28;20407;-63
2024/01/29 00:23:59;;;;;;;4.83;4.37;;;;;;;;;;5068610;28;20082;-62
2024/01/29 00:26:24;;;;;;;4.22;3.83;;;;;;;;;;5069676;28;20484;-62
2024/01/29 00:28:50;;;;;;;7.37;5.53;;;;;;;;;;5068496;28;20041;-62
2024/01/29 00:31:16;;;;;;;6.87;5.13;;;;;;;;;;5070194;28;20415;-62
2024/01/29 00:33:41;;;;;;;6.07;5.28;;;;;;;;;;5068342;28;20564;-63
2024/01/29 00:36:07;;;;;;;4.63;4.23;;;;;;;;;;5072049;28;20495;-62
2024/01/29 00:38:32;;;;;;;5.37;4.00;;;;;;;;;;5071991;28;20457;-62
2024/01/29 00:40:57;;;;;;;8.17;4.10;;;;;;;;;;5073063;28;20438;-62
2024/01/29 00:43:22;;;;;;;5.90;4.50;;;;;;;;;;5072173;28;20423;-63
2024/01/29 00:45:47;;;;;;;5.60;4.50;;;;;;;;;;5073312;28;20005;-62
2024/01/29 00:48:12;;;;;;;5.23;4.73;;;;;;;;;;5072954;28;20447;-62
2024/01/29 00:50:38;;;;;;;12.13;6.30;;;;;;;;;;5072028;28;20471;-62
2024/01/29 00:53:03;;;;;;;5.73;4.80;;;;;;;;;;5073540;28;20411;-62
2024/01/29 00:55:28;;;;;;;5.90;5.30;;;;;;;;;;5071381;28;20451;-62
2024/01/29 00:57:53;;;;;;;7.17;5.70;;;;;;;;;;5073109;28;20016;-62
2024/01/29 01:00:19;;;;;;;6.27;5.23;;;;;;;;;;5071769;28;20035;-62
2024/01/29 01:02:44;;;;;;;11.05;5.00;;;;;;;;;;5072790;28;20933;-62
2024/01/29 01:05:09;;;;;;;5.57;5.07;;;;;;;;;;5071906;28;20047;-62
2024/01/29 01:07:34;;;;;;;10.87;5.73;;;;;;;;;;5072871;28;20870;-62
2024/01/29 01:09:59;;;;;;;6.53;5.60;;;;;;;;;;5070947;28;20463;-62
2024/01/29 01:12:25;;;;;;;6.10;4.73;;;;;;;;;;5073167;28;20095;-62
2024/01/29 01:14:50;;;;;;;5.03;4.57;;;;;;;;;;5071373;28;20446;-63
2024/01/29 01:17:15;;;;;;;5.43;4.70;;;;;;;;;;5072785;28;20422;-62
2024/01/29 01:19:40;;;;;;;9.13;4.93;;;;;;;;;;5071178;28;20447;-62
2024/01/29 01:22:05;;;;;;;6.10;4.73;;;;;;;;;;5072955;28;20426;-62
2024/01/29 01:24:31;;;;;;;7.15;4.85;;;;;;;;;;5071081;28;20512;-62
2024/01/29 01:26:56;;;;;;;7.33;5.10;;;;;;;;;;5072433;28;20032;-62
2024/01/29 01:29:21;;;;;;;8.73;4.60;;;;;;;;;;5071642;28;20809;-62
2024/01/29 01:31:46;;;;;;;5.37;4.87;;;;;;;;;;5072045;28;20086;-62
2024/01/29 01:34:11;;;;;;;8.37;5.60;;;;;;;;;;5070142;28;20457;-61
2024/01/29 01:36:37;;;;;;;7.28;5.03;;;;;;;;;;5072227;28;20434;-62
2024/01/29 01:39:02;;;;;;;6.20;5.03;;;;;;;;;;5070500;28;20040;-62
2024/01/29 01:41:27;;;;;;;5.47;4.38;;;;;;;;;;5072855;28;20944;-62
2024/01/29 01:43:53;;;;;;;6.90;5.73;;;;;;;;;;5070667;28;20041;-62
2024/01/29 01:46:22;;;;;;;6.63;4.70;;;;;;;;;;5070476;28;20526;-62
2024/01/29 01:48:48;;;;;;;6.97;6.28;;;;;;;;;;5070450;28;20658;-62
2024/01/29 01:51:13;;;;;;;6.60;5.35;;;;;;;;;;5072470;28;20016;-62
2024/01/29 01:53:39;;;;;;;10.43;6.65;;;;;;;;;;5070238;28;20056;-63
2024/01/29 01:56:05;;;;;;;8.55;6.07;;;;;;;;;;5072303;28;20392;-63
2024/01/29 01:58:32;;;;;;;11.48;6.13;;;;;;;;;;5070814;28;20017;-64
2024/01/29 02:00:57;;;;;;;7.60;5.93;;;;;;;;;;5071513;28;20020;-63
2024/01/29 02:03:22;;;;;;;6.85;5.80;;;;;;;;;;5070533;28;20040;-63
2024/01/29 02:05:48;;;;;;;7.47;5.88;;;;;;;;;;5071585;28;20107;-63
2024/01/29 02:08:15;;;;;;;13.55;6.40;;;;;;;;;;5071486;28;20104;-63
2024/01/29 02:10:40;;;;;;;10.93;6.63;;;;;;;;;;5070140;28;20024;-63
2024/01/29 02:13:11;;;;;;;10.17;7.10;;;;;;;;;;5071893;28;20024;-63
2024/01/29 02:15:37;;;;;;;11.07;6.00;;;;;;;;;;5069717;28;20825;-63
2024/01/29 02:18:02;;;;;;;10.30;5.70;;;;;;;;;;5071858;28;20020;-63
2024/01/29 02:20:27;;;;;;;11.05;6.25;;;;;;;;;;5070131;28;20451;-64
2024/01/29 02:22:52;;;;;;;8.40;6.35;;;;;;;;;;5071129;28;20020;-64
2024/01/29 02:25:18;;;;;;;16.93;7.30;;;;;;;;;;5070202;28;20040;-64
2024/01/29 02:27:43;;;;;;;9.57;5.80;;;;;;;;;;5071457;28;20434;-63
2024/01/29 02:30:09;;;;;;;14.77;8.07;;;;;;;;;;5069767;28;20981;-63
2024/01/29 02:32:34;;;;;;;13.98;7.47;;;;;;;;;;5071577;28;20411;-63
2024/01/29 02:34:59;;;;;;;9.18;6.32;;;;;;;;;;5069702;28;20032;-63
2024/01/29 02:37:24;;;;;;;14.43;7.43;;;;;;;;;;5070903;28;20024;-64
2024/01/29 02:39:50;;;;;;;10.20;6.18;;;;;;;;;;5069542;28;20162;-63
2024/01/29 02:42:18;;;;;;;13.27;7.70;;;;;;;;;;5071378;28;20032;-63
2024/01/29 02:44:45;;;;;;;12.13;6.75;;;;;;;;;;5069545;28;20037;-64
2024/01/29 02:47:10;;;;;;;14.65;6.45;;;;;;;;;;5070657;28;20082;-63
2024/01/29 02:49:35;;;;;;;6.10;5.50;;;;;;;;;;5069943;28;20032;-61
2024/01/29 02:52:00;;;;;;;10.82;7.50;;;;;;;;;;5070851;28;20953;-63
2024/01/29 02:54:25;;;;;;;15.90;5.97;;;;;;;;;;5069338;28;20103;-63
2024/01/29 02:56:51;;;;;;;10.87;6.30;;;;;;;;;;5071048;28;20415;-63
2024/01/29 02:59:16;;;;;;;6.93;6.30;;;;;;;;;;5069468;28;20067;-63
2024/01/29 03:01:41;;;;;;;8.43;7.40;;;;;;;;;;5070720;28;20769;-63
2024/01/29 03:04:06;;;;;;;12.60;6.93;;;;;;;;;;5069600;28;20454;-62
2024/01/29 03:06:31;;;;;;;10.33;7.13;;;;;;;;;;5070778;28;20440;-62
2024/01/29 03:08:56;;;;;;;14.87;6.07;;;;;;;;;;5068987;28;20524;-61
2024/01/29 03:11:22;;;;;;;9.73;5.63;;;;;;;;;;5071187;28;20020;-62
2024/01/29 03:13:48;;;;;;;9.97;5.87;;;;;;;;;;5069299;28;20451;-62
2024/01/29 03:16:13;;;;;;;11.68;7.75;;;;;;;;;;5070660;28;20435;-62
2024/01/29 03:18:38;;;;;;;9.77;6.47;;;;;;;;;;5069478;28;20033;-62
2024/01/29 03:21:03;;;;;;;13.97;7.87;;;;;;;;;;5070867;28;20496;-62
2024/01/29 03:23:28;;;;;;;11.15;6.85;;;;;;;;;;5068840;28;20407;-62
2024/01/29 03:25:54;;;;;;;9.57;7.23;;;;;;;;;;5070848;28;20017;-62
2024/01/29 03:28:19;;;;;;;11.95;6.70;;;;;;;;;;5069334;28;20446;-62
2024/01/29 03:30:44;;;;;;;20.83;6.50;;;;;;;;;;5070254;28;20379;-62
2024/01/29 03:33:09;;;;;;;14.27;6.80;;;;;;;;;;5070798;28;20419;-62
2024/01/29 03:35:34;;;;;;;11.90;6.73;;;;;;;;;;5069345;28;20449;-62
2024/01/29 03:38:00;;;;;;;12.63;7.17;;;;;;;;;;5069153;28;20817;-63
2024/01/29 03:40:25;;;;;;;13.90;7.50;;;;;;;;;;5069232;28;20037;-63
2024/01/29 03:42:50;;;;;;;10.83;6.80;;;;;;;;;;5070582;28;20466;-63
2024/01/29 03:45:15;;;;;;;6.70;6.10;;;;;;;;;;5068694;28;21146;-62
2024/01/29 03:47:40;;;;;;;8.67;5.47;;;;;;;;;;5070476;28;20454;-62
2024/01/29 03:50:06;;;;;;;8.80;6.60;;;;;;;;;;5069108;28;20493;-62
2024/01/29 03:52:31;;;;;;;10.32;7.85;;;;;;;;;;5070462;28;20427;-63
2024/01/29 03:54:56;;;;;;;8.43;5.70;;;;;;;;;;5067579;28;20048;-63
2024/01/29 03:57:21;;;;;;;10.37;6.67;;;;;;;;;;5069340;28;20453;-63
2024/01/29 03:59:47;;;;;;;9.23;6.77;;;;;;;;;;5068336;28;21069;-63
2024/01/29 04:02:12;;;;;;;10.47;6.53;;;;;;;;;;5070564;28;20457;-63
2024/01/29 04:04:37;;;;;;;11.43;7.30;;;;;;;;;;5068770;28;20447;-63
2024/01/29 04:07:02;;;;;;;11.70;7.93;;;;;;;;;;5069999;28;20081;-63
2024/01/29 04:09:27;;;;;;;11.77;6.80;;;;;;;;;;5069023;28;20056;-63
2024/01/29 04:11:53;;;;;;;8.63;6.90;;;;;;;;;;5073462;28;20418;-63
2024/01/29 04:14:19;;;;;;;6.82;6.13;;;;;;;;;;5072426;28;20033;-63
2024/01/29 04:16:44;;;;;;;10.10;6.97;;;;;;;;;;5073951;28;20019;-64
2024/01/29 04:19:10;;;;;;;8.93;6.22;;;;;;;;;;5072284;28;20029;-64
2024/01/29 04:21:35;;;;;;;10.67;6.53;;;;;;;;;;5073705;28;20016;-63
2024/01/29 04:24:00;;;;;;;8.33;6.53;;;;;;;;;;5058541;28;20447;-63
2024/01/29 04:26:25;;;;;;;11.75;5.65;;;;;;;;;;5054003;28;20427;-63
2024/01/29 04:28:50;;;;;;;7.67;6.90;;;;;;;;;;5051869;28;20449;-63
2024/01/29 04:31:16;;;;;;;9.65;7.10;;;;;;;;;;5054159;28;20438;-62
2024/01/29 04:33:41;;;;;;;10.85;7.18;;;;;;;;;;5052181;28;20059;-63
2024/01/29 04:36:07;;;;;;;12.57;7.40;;;;;;;;;;5053515;28;20025;-62
2024/01/29 04:38:32;;;;;;;8.50;6.05;;;;;;;;;;5052069;28;20025;-63
2024/01/29 04:40:57;;;;;;;8.47;6.37;;;;;;;;;;5053285;28;20025;-63
2024/01/29 04:43:22;;;;;;;12.40;6.43;;;;;;;;;;5052008;28;20408;-64
2024/01/29 04:45:48;;;;;;;9.13;6.37;;;;;;;;;;5053409;28;20412;-63
2024/01/29 04:48:13;;;;;;;14.45;7.03;;;;;;;;;;5053655;28;20477;-63
2024/01/29 04:50:38;;;;;;;6.93;5.87;;;;;;;;;;5051753;28;20036;-63
2024/01/29 04:53:03;;;;;;;8.50;6.87;;;;;;;;;;5053322;28;20481;-63
2024/01/29 04:55:28;;;;;;;9.70;5.72;;;;;;;;;;5051934;28;20409;-63
2024/01/29 04:57:54;;;;;;;11.03;7.20;;;;;;;;;;5053275;28;20104;-63
2024/01/29 05:00:19;;;;;;;13.40;6.90;;;;;;;;;;5051357;28;20455;-63
2024/01/29 05:02:44;;;;;;;7.00;5.63;;;;;;;;;;5052984;28;20027;-63
2024/01/29 05:05:09;;;;;;;10.55;6.10;;;;;;;;;;5051893;28;20427;-63
2024/01/29 05:07:35;;;;;;;6.93;5.43;;;;;;;;;;5052987;28;20024;-63
2024/01/29 05:10:00;;;;;;;7.73;6.70;;;;;;;;;;5051485;28;20443;-63
2024/01/29 05:12:25;;;;;;;6.87;5.57;;;;;;;;;;5052511;28;20432;-61
2024/01/29 05:14:50;;;;;;;16.07;6.33;;;;;;;;;;5050461;28;20522;-60
2024/01/29 05:17:15;;;;;;;10.23;6.13;;;;;;;;;;5052222;28;21001;-61
2024/01/29 05:19:44;;;;;;;9.85;6.35;;;;;;;;;;5050474;28;20463;-60
2024/01/29 05:22:09;;;;;;;10.40;6.15;;;;;;;;;;5052034;28;20070;-61
2024/01/29 05:24:34;;;;;;;9.20;7.05;;;;;;;;;;5051289;28;20484;-60
2024/01/29 05:26:59;;;;;;;8.53;6.67;;;;;;;;;;5052745;28;20032;-60
2024/01/29 05:29:24;;;;;;;10.67;7.47;;;;;;;;;;5051193;28;20545;-60
2024/01/29 05:31:50;;;;;;;8.13;6.23;;;;;;;;;;5052413;28;20429;-60
2024/01/29 05:34:15;;;;;;;8.32;7.05;;;;;;;;;;5050632;28;20466;-60
2024/01/29 05:36:40;;;;;;;6.60;5.90;;;;;;;;;;5052084;28;20025;-61
2024/01/29 05:39:05;;;;;;;9.77;5.90;;;;;;;;;;5050898;28;20460;-60
2024/01/29 05:41:30;;;;;;;8.15;6.70;;;;;;;;;;5052400;28;20416;-60
2024/01/29 05:43:55;;;;;;;7.60;5.90;;;;;;;;;;5050471;28;20507;-60
2024/01/29 05:46:21;;;;;;;8.27;6.18;;;;;;;;;;5052013;28;20431;-60
2024/01/29 05:48:46;;;;;;;5.70;5.10;;;;;;;;;;5051183;28;20091;-60
2024/01/29 05:51:11;;;;;;;7.40;6.10;;;;;;;;;;5052261;28;20477;-60
2024/01/29 05:53:36;;;;;;;7.20;6.50;;;;;;;;;;5051095;28;20041;-60
2024/01/29 05:56:04;;;;;;;9.57;6.17;;;;;;;;;;5052270;28;20423;-60
2024/01/29 05:58:32;;;;;;;7.22;6.45;;;;;;;;;;5050837;28;20021;-59
2024/01/29 06:00:59;;;;;;;8.23;7.45;;;;;;;;;;5051668;28;20021;-61
2024/01/29 06:03:24;;;;;;;10.38;7.35;;;;;;;;;;5051300;28;20021;-60
2024/01/29 06:05:49;;;;;;;9.63;7.03;;;;;;;;;;5051606;28;20020;-61
2024/01/29 06:08:14;;;;;;;8.98;7.40;;;;;;;;;;5052191;28;20855;-60
2024/01/29 06:10:40;;;;;;;12.77;6.28;;;;;;;;;;5064381;28;20028;-61
2024/01/29 06:13:05;;;;;;;11.67;6.87;;;;;;;;;;5071430;28;20025;-60
2024/01/29 06:15:31;;;;;;;11.95;7.65;;;;;;;;;;5060394;28;20513;-60
2024/01/29 06:17:56;;;;;;;6.30;5.70;;;;;;;;;;5051499;28;20032;-61
2024/01/29 06:20:21;;;;;;;20.58;6.13;;;;;;;;;;5049447;28;20033;-61
2024/01/29 06:22:46;;;;;;;14.60;7.13;;;;;;;;;;5051636;28;20028;-60
2024/01/29 06:25:11;;;;;;;14.30;7.60;;;;;;;;;;5050420;28;20543;-61
2024/01/29 06:27:37;;;;;;;7.80;7.00;;;;;;;;;;5050885;28;20444;-61
2024/01/29 06:30:03;;;;;;;8.45;7.50;;;;;;;;;;5050182;28;20550;-61
2024/01/29 06:32:29;;;;;;;7.80;6.25;;;;;;;;;;5051958;28;20481;-61
2024/01/29 06:34:57;;;;;;;11.65;6.95;;;;;;;;;;5049130;28;20033;-61
2024/01/29 06:37:22;;;;;;;8.57;6.95;;;;;;;;;;5051497;28;20029;-61
2024/01/29 06:39:47;;;;;;;8.43;6.50;;;;;;;;;;5049699;28;20041;-61
2024/01/29 06:42:12;;;;;;;6.63;6.03;;;;;;;;;;5051132;28;20096;-61
2024/01/29 06:44:37;;;;;;;6.80;6.20;;;;;;;;;;5049705;28;20459;-60
2024/01/29 06:47:03;;;;;;;6.27;5.67;;;;;;;;;;5051300;28;20780;-61
2024/01/29 06:49:30;;;;;;;7.57;4.80;;;;;;;;;;5049427;28;20513;-61
2024/01/29 06:51:56;;;;;;;9.02;5.65;;;;;;;;;;5051345;28;20530;-61
2024/01/29 06:54:21;;;;;;;7.85;5.80;;;;;;;;;;5049817;28;20033;-60
2024/01/29 06:56:46;;;;;;;6.70;6.20;;;;;;;;;;5050691;28;20032;-61
2024/01/29 06:59:12;;;;;;;6.97;5.82;;;;;;;;;;5049858;28;20025;-60
2024/01/29 07:01:37;;;;;;;7.30;6.47;;;;;;;;;;5050533;28;20496;-61
2024/01/29 07:04:03;;;;;;;6.45;5.82;;;;;;;;;;5049448;28;20036;-61
2024/01/29 07:06:29;;;;;;;7.18;6.47;;;;;;;;;;5051354;28;20380;-61
2024/01/29 07:08:54;;;;;;;6.35;5.50;;;;;;;;;;5049412;28;20033;-61
2024/01/29 07:11:19;;;;;;;8.93;6.33;;;;;;;;;;5050793;28;20068;-61
2024/01/29 07:13:44;;;;;;;9.10;6.87;;;;;;;;;;5049687;28;20520;-61
2024/01/29 07:16:09;;;;;;;14.20;8.43;;;;;;;;;;5050938;28;20779;-61
2024/01/29 07:18:36;;;;;;;8.73;5.60;;;;;;;;;;5049460;28;20055;-61
2024/01/29 07:21:02;;;;;;;7.00;6.28;;;;;;;;;;5050937;28;20436;-60
2024/01/29 07:23:27;;;;;;;6.90;5.75;;;;;;;;;;5049826;28;20031;-59
2024/01/29 07:25:52;;;;;;;8.65;6.38;;;;;;;;;;5050159;28;20027;-59
2024/01/29 07:28:17;;;;;;;7.97;7.20;;;;;;;;;;5048948;28;20037;-58
2024/01/29 07:30:43;;;;;;;7.00;6.03;;;;;;;;;;5050789;28;20790;-59
2024/01/29 07:33:08;;;;;;;11.05;7.60;;;;;;;;;;5050666;28;20414;-59
2024/01/29 07:35:33;;;;;;;9.30;6.20;;;;;;;;;;5049038;28;20056;-59
2024/01/29 07:37:58;;;;;;;11.20;6.38;;;;;;;;;;5050406;28;20518;-59
2024/01/29 07:40:23;;;;;;;6.65;6.05;;;;;;;;;;5049474;28;20400;-58
2024/01/29 07:42:49;;;;;;;9.23;8.27;;;;;;;;;;5049944;28;20025;-59
2024/01/29 07:45:15;;;;;;;10.40;6.82;;;;;;;;;;5049840;28;20064;-58
2024/01/29 07:47:40;;;;;;;10.23;6.45;;;;;;;;;;5054352;28;20028;-59
2024/01/29 07:50:06;;;;;;;12.90;6.63;;;;;;;;;;5053157;28;20575;-59
2024/01/29 07:52:31;;;;;;;11.05;6.57;;;;;;;;;;5054617;28;20024;-59
2024/01/29 07:54:56;;;;;;;10.77;6.40;;;;;;;;;;5052843;28;20029;-59
2024/01/29 07:57:21;;;;;;;6.80;5.63;;;;;;;;;;5054372;28;20783;-59
2024/01/29 07:59:46;;;;;;;10.90;6.67;;;;;;;;;;5052577;28;20490;-59
2024/01/29 08:02:12;;;;;;;8.43;7.63;;;;;;;;;;5054572;28;20502;-59
2024/01/29 08:04:37;;;;;;;10.23;6.43;;;;;;;;;;5049865;28;20469;-60
2024/01/29 08:07:02;;;;;;;6.57;5.97;;;;;;;;;;5048830;28;20448;-59
2024/01/29 08:09:27;;;;;;;9.35;5.18;;;;;;;;;;5064067;28;20036;-59
2024/01/29 08:11:52;;;;;;;6.87;5.13;;;;;;;;;;5053676;28;20051;-59
2024/01/29 08:14:18;;;;;;;7.43;6.40;;;;;;;;;;5052757;28;20517;-59
2024/01/29 08:16:43;;;;;;;9.37;5.27;;;;;;;;;;5053818;28;20771;-58
2024/01/29 08:19:08;;;;;;;11.63;6.73;;;;;;;;;;5052148;28;20039;-59
2024/01/29 08:21:33;;;;;;;12.07;6.10;;;;;;;;;;5053872;28;20423;-59
2024/01/29 08:23:59;;;;;;;9.80;5.95;;;;;;;;;;5050927;28;20110;-59
2024/01/29 08:26:24;;;;;;;6.50;5.85;;;;;;;;;;5053861;28;20041;-59
2024/01/29 08:28:49;;;;;;;9.73;5.90;;;;;;;;;;5052083;28;20037;-59
2024/01/29 08:31:14;;;;;;;9.88;5.75;;;;;;;;;;5054175;28;20439;-59
2024/01/29 08:33:42;;;;;;;8.57;7.67;;;;;;;;;;5051783;28;20064;-59
2024/01/29 08:36:07;;;;;;;7.03;5.22;;;;;;;;;;5053862;28;20420;-59
2024/01/29 08:38:32;;;;;;;8.02;6.82;;;;;;;;;;5051266;28;20178;-59
2024/01/29 08:40:57;;;;;;;14.30;5.90;;;;;;;;;;5052049;28;20043;-58
2024/01/29 08:43:23;;;;;;;7.80;5.47;;;;;;;;;;5051267;28;20458;-59
2024/01/29 08:45:49;;;;;;;7.15;6.45;;;;;;;;;;5052491;28;20388;-58
2024/01/29 08:48:14;;;;;;;10.23;6.28;;;;;;;;;;5050476;28;20104;-59
2024/01/29 08:50:39;;;;;;;6.43;5.73;;;;;;;;;;5051427;28;20025;-58
2024/01/29 08:53:04;;;;;;;7.68;6.22;;;;;;;;;;5051920;28;20415;-58
2024/01/29 08:55:32;;;;;;;12.07;6.13;;;;;;;;;;5049739;28;20052;-58
2024/01/29 08:57:57;;;;;;;7.43;6.03;;;;;;;;;;5051473;28;20435;-59
2024/01/29 09:00:23;;;;;;;6.43;5.73;;;;;;;;;;5050783;28;20458;-58
2024/01/29 09:02:49;;;;;;;6.70;5.55;;;;;;;;;;5051722;28;20447;-58
2024/01/29 09:05:14;;;;;;;9.98;7.15;;;;;;;;;;5050804;28;20058;-58
2024/01/29 09:07:40;;;;;;;12.23;6.15;;;;;;;;;;5051596;28;20475;-59
2024/01/29 09:10:06;;;;;;;6.68;5.32;;;;;;;;;;5050346;28;20029;-58
2024/01/29 09:12:31;;;;;;;11.15;5.70;;;;;;;;;;5052318;28;20017;-59
2024/01/29 09:14:56;;;;;;;8.48;5.82;;;;;;;;;;5050538;28;20036;-59
2024/01/29 09:17:21;;;;;;;8.67;7.77;;;;;;;;;;5051596;28;20029;-58
2024/01/29 09:19:47;;;;;;;6.77;5.23;;;;;;;;;;5050158;28;20518;-58
2024/01/29 09:22:12;;;;;;;5.65;5.15;;;;;;;;;;5052106;28;20032;-58
2024/01/29 09:24:37;;;;;;;7.47;4.68;;;;;;;;;;5049927;28;20061;-58
2024/01/29 09:27:02;;;;;;;10.53;7.80;;;;;;;;;;5051744;28;20478;-59
2024/01/29 09:29:28;;;;;;;9.05;4.90;;;;;;;;;;5050392;28;20867;-59
2024/01/29 09:31:53;;;;;;;8.15;5.63;;;;;;;;;;5051217;28;20040;-58
2024/01/29 09:34:20;;;;;;;7.33;6.33;;;;;;;;;;5050308;28;20482;-58
2024/01/29 09:36:45;;;;;;;6.30;5.70;;;;;;;;;;5051440;28;20469;-58
2024/01/29 09:39:11;;;;;;;7.88;6.38;;;;;;;;;;5013860;28;1060712;-58
2024/01/29 09:41:38;;;;;;;7.27;6.57;;;;;;;;;;5052015;28;20025;-59
2024/01/29 09:44:04;;;;;;;7.30;6.32;;;;;;;;;;5051107;28;20095;-59
2024/01/29 09:46:30;;;;;;;6.38;4.97;;;;;;;;;;5049423;28;20059;-58
2024/01/29 09:48:55;;;;;;;6.68;5.40;;;;;;;;;;5050275;28;20904;-59
2024/01/29 09:51:22;;;;;;;5.90;5.30;;;;;;;;;;5052361;28;20142;-59
2024/01/29 09:53:49;;;;;;;7.30;6.57;;;;;;;;;;5050747;28;20573;-59
2024/01/29 09:56:14;;;;;;;9.07;5.18;;;;;;;;;;5052044;28;20027;-59
2024/01/29 09:58:39;;;;;;;36.53;8.13;;;;;;;;;;5050719;28;20033;-59
2024/01/29 10:01:06;;;;;;;7.57;6.60;;;;;;;;;;5051138;28;20489;-59
2024/01/29 10:03:32;;;;;;;7.00;5.78;;;;;;;;;;5050294;28;20423;-59
2024/01/29 10:05:58;;;;;;;13.95;8.88;;;;;;;;;;5052035;28;20024;-58
2024/01/29 10:08:24;;;;;;;8.07;4.95;;;;;;;;;;5049471;28;20074;-58
2024/01/29 10:10:50;;;;;;;8.05;6.22;;;;;;;;;;5051447;28;20055;-59
2024/01/29 10:13:15;;;;;;;5.28;4.50;;;;;;;;;;5050944;28;20444;-59
2024/01/29 10:15:44;;;;;;;6.73;6.03;;;;;;;;;;5051730;28;20041;-59
2024/01/29 10:18:10;;;;;;;5.65;4.85;;;;;;;;;;5052081;28;20029;-59
2024/01/29 10:20:35;;;;;;;6.30;5.45;;;;;;;;;;5050133;28;20440;-59
2024/01/29 10:23:01;;;;;;;7.47;5.27;;;;;;;;;;5051657;28;20155;-59
2024/01/29 10:25:27;;;;;;;7.22;5.97;;;;;;;;;;5050097;28;20298;-59
2024/01/29 10:27:52;;;;;;;8.55;5.93;;;;;;;;;;5051742;28;20095;-58
2024/01/29 10:30:18;;;;;;;6.37;5.77;;;;;;;;;;5050173;28;20598;-59
2024/01/29 10:32:43;;;;;;;10.15;6.47;;;;;;;;;;5051326;28;20424;-59
2024/01/29 10:35:08;;;;;;;6.50;5.27;;;;;;;;;;5050222;28;20431;-58
2024/01/29 10:37:33;;;;;;;8.93;6.93;;;;;;;;;;5051363;28;20076;-59
2024/01/29 10:40:04;;;;;;;8.27;6.53;;;;;;;;;;5049246;28;20543;-59
2024/01/29 10:42:30;;;;;;;11.70;6.05;;;;;;;;;;5051486;28;20046;-58
2024/01/29 10:44:58;;;;;;;7.32;6.05;;;;;;;;;;5049869;28;20492;-58
2024/01/29 10:47:27;;;;;;;12.77;6.40;;;;;;;;;;5051247;28;20399;-58
2024/01/29 10:49:53;;;;;;;9.20;6.57;;;;;;;;;;5049433;28;20025;-59
2024/01/29 10:52:19;;;;;;;9.75;6.32;;;;;;;;;;5051618;28;20045;-58
2024/01/29 10:54:45;;;;;;;7.07;6.38;;;;;;;;;;5049333;28;20084;-59
2024/01/29 10:57:10;;;;;;;8.50;7.60;;;;;;;;;;5051312;28;20414;-59
2024/01/29 10:59:38;;;;;;;10.25;7.68;;;;;;;;;;5049687;28;20124;-58
2024/01/29 11:02:04;;;;;;;6.95;6.15;;;;;;;;;;5050607;28;20036;-58
2024/01/29 11:04:29;;;;;;;13.25;6.95;;;;;;;;;;5049795;28;20464;-58
2024/01/29 11:07:01;;;;;;;14.43;8.38;;;;;;;;;;5050061;28;20024;-59
2024/01/29 11:09:27;;;;;;;7.95;6.60;;;;;;;;;;5049310;28;20047;-59
2024/01/29 11:11:53;;;;;;;11.55;8.20;;;;;;;;;;5050580;28;20384;-58
2024/01/29 11:14:24;;;;;;;11.75;9.73;;;;;;;;;;5049552;28;20041;-59
2024/01/29 11:16:52;;;;;;;10.50;7.13;;;;;;;;;;5050287;28;20480;-58
2024/01/29 11:19:20;;;;;;;8.27;7.47;;;;;;;;;;5049403;28;20041;-58
2024/01/29 11:21:51;;;;;;;8.48;7.63;;;;;;;;;;5050389;28;20068;-58
2024/01/29 11:24:16;;;;;;;11.65;7.38;;;;;;;;;;5046559;28;20045;-58
2024/01/29 11:26:42;;;;;;;8.18;6.15;;;;;;;;;;5049415;28;20060;-58
2024/01/29 11:29:10;;;;;;;11.65;7.90;;;;;;;;;;5049322;28;20131;-58
2024/01/29 11:31:42;;;;;;;10.68;6.95;;;;;;;;;;5049442;28;20029;-58
2024/01/29 11:34:07;;;;;;;9.35;7.60;;;;;;;;;;5048857;28;20044;-58
2024/01/29 11:36:36;;;;;;;7.35;6.65;;;;;;;;;;5050739;28;20021;-58
2024/01/29 11:39:03;;;;;;;9.45;7.38;;;;;;;;;;5048940;28;20093;-58
2024/01/29 11:41:28;;;;;;;12.88;8.05;;;;;;;;;;5050545;28;20017;-58
2024/01/29 11:43:53;;;;;;;11.50;8.30;;;;;;;;;;5049157;28;20048;-58
2024/01/29 11:46:20;;;;;;;8.53;7.57;;;;;;;;;;5050220;28;20430;-57
2024/01/29 11:48:45;;;;;;;8.90;7.45;;;;;;;;;;5049012;28;20037;-58
2024/01/29 11:51:10;;;;;;;11.17;8.87;;;;;;;;;;5050582;28;20082;-58
2024/01/29 11:53:36;;;;;;;10.57;9.17;;;;;;;;;;5048893;28;20531;-58
2024/01/29 11:56:02;;;;;;;8.43;7.18;;;;;;;;;;5050575;28;20027;-58
2024/01/29 11:58:27;;;;;;;13.18;8.38;;;;;;;;;;5049520;28;20013;-58
2024/01/29 12:00:52;;;;;;;10.98;7.55;;;;;;;;;;5049826;28;20017;-58
2024/01/29 12:03:21;;;;;;;10.25;7.35;;;;;;;;;;5049094;28;20025;-58
2024/01/29 12:05:47;;;;;;;12.63;9.88;;;;;;;;;;5050465;28;20012;-58
2024/01/29 12:08:14;;;;;;;12.30;8.20;;;;;;;;;;5050003;28;20025;-58
2024/01/29 12:10:39;;;;;;;14.15;9.35;;;;;;;;;;5048743;28;20037;-58
2024/01/29 12:13:10;;;;;;;10.15;8.13;;;;;;;;;;5050522;28;20384;-58
2024/01/29 12:15:35;;;;;;;12.75;9.90;;;;;;;;;;5048571;28;20079;-58
2024/01/29 12:18:07;;;;;;;15.43;9.87;;;;;;;;;;5050322;28;20444;-58
2024/01/29 12:20:32;;;;;;;11.15;7.63;;;;;;;;;;5048774;28;20490;-58
2024/01/29 12:22:58;;;;;;;15.40;9.23;;;;;;;;;;5049729;28;20079;-58
2024/01/29 12:25:23;;;;;;;8.85;7.95;;;;;;;;;;5048984;28;20040;-57
2024/01/29 12:27:48;;;;;;;11.67;7.20;;;;;;;;;;5050076;28;20025;-58
2024/01/29 12:30:13;;;;;;;11.35;8.20;;;;;;;;;;5048325;28;20458;-58
2024/01/29 12:32:41;;;;;;;12.25;7.97;;;;;;;;;;5052861;28;20419;-58
2024/01/29 12:35:42;;;;;;;10.10;8.15;;;;;;;;;;5052632;28;20037;-58
2024/01/29 12:38:08;;;;;;;10.52;8.45;;;;;;;;;;5030832;28;20037;-58
2024/01/29 12:40:34;;;;;;;9.63;7.95;;;;;;;;;;5047573;28;20408;-59
2024/01/29 12:43:03;;;;;;;8.90;7.97;;;;;;;;;;5053730;28;20029;-58
2024/01/29 12:45:28;;;;;;;9.13;8.15;;;;;;;;;;5051742;28;20033;-58
2024/01/29 12:48:12;;;;;;;9.23;8.18;;;;;;;;;;5053291;28;20032;-58
2024/01/29 12:50:38;;;;;;;9.65;7.68;;;;;;;;;;5052022;28;20033;-58
2024/01/29 12:53:04;;;;;;;13.20;10.15;;;;;;;;;;5053046;28;20020;-58
2024/01/29 12:55:29;;;;;;;8.70;7.82;;;;;;;;;;5052049;28;20083;-58
2024/01/29 12:57:54;;;;;;;11.53;9.67;;;;;;;;;;5053434;28;20032;-59
2024/01/29 13:00:20;;;;;;;8.63;7.73;;;;;;;;;;5051474;28;20450;-58
2024/01/29 13:02:46;;;;;;;10.35;7.65;;;;;;;;;;5053448;28;20060;-58
2024/01/29 13:05:11;;;;;;;11.18;8.25;;;;;;;;;;5052043;28;20045;-58
2024/01/29 13:07:37;;;;;;;13.45;9.70;;;;;;;;;;5052869;28;20021;-58
2024/01/29 13:10:03;;;;;;;17.55;11.02;;;;;;;;;;5051937;28;20060;-58
2024/01/29 13:12:29;;;;;;;14.13;9.32;;;;;;;;;;5053614;28;20104;-58
2024/01/29 13:14:54;;;;;;;12.65;9.70;;;;;;;;;;5049489;28;20455;-58
2024/01/29 13:17:19;;;;;;;9.13;8.23;;;;;;;;;;5051536;28;20017;-58
2024/01/29 13:19:44;;;;;;;10.33;9.23;;;;;;;;;;5049741;28;20116;-58
2024/01/29 13:22:09;;;;;;;12.27;9.20;;;;;;;;;;5051002;28;20013;-58
2024/01/29 13:24:34;;;;;;;10.73;8.57;;;;;;;;;;5050227;28;20412;-58
2024/01/29 13:27:00;;;;;;;13.30;10.90;;;;;;;;;;5051206;28;20063;-58
2024/01/29 13:29:25;;;;;;;13.90;10.48;;;;;;;;;;5050267;28;20037;-58
2024/01/29 13:31:50;;;;;;;11.57;9.37;;;;;;;;;;5052826;28;20029;-58
2024/01/29 13:34:19;;;;;;;10.63;9.60;;;;;;;;;;5051522;28;20447;-58
2024/01/29 13:36:45;;;;;;;8.77;7.88;;;;;;;;;;5052205;28;20469;-58
2024/01/29 13:39:11;;;;;;;11.00;8.90;;;;;;;;;;5051339;28;20056;-58
2024/01/29 13:41:36;;;;;;;12.82;10.27;;;;;;;;;;5052443;28;20021;-58
2024/01/29 13:44:01;;;;;;;12.90;9.13;;;;;;;;;;5049923;28;20033;-58
2024/01/29 13:46:27;;;;;;;12.57;9.00;;;;;;;;;;5052621;28;20496;-58
2024/01/29 13:48:53;;;;;;;15.63;10.07;;;;;;;;;;5050685;28;20521;-58
2024/01/29 13:51:22;;;;;;;16.95;11.05;;;;;;;;;;5052454;28;20104;-58
2024/01/29 13:53:48;;;;;;;11.18;8.85;;;;;;;;;;5050877;28;20492;-57
2024/01/29 13:56:13;;;;;;;11.43;10.27;;;;;;;;;;5052636;28;20421;-58
2024/01/29 13:58:38;;;;;;;10.27;9.20;;;;;;;;;;5050441;28;20063;-58
2024/01/29 14:01:03;;;;;;;11.43;9.00;;;;;;;;;;5052372;28;20377;-58
2024/01/29 14:03:30;;;;;;;14.20;11.17;;;;;;;;;;5050836;28;20111;-58
2024/01/29 14:05:55;;;;;;;12.45;8.30;;;;;;;;;;5051381;28;20488;-58
2024/01/29 14:08:20;;;;;;;9.63;8.57;;;;;;;;;;5050568;28;20044;-57
2024/01/29 14:10:45;;;;;;;9.53;8.30;;;;;;;;;;5051778;28;20024;-58
2024/01/29 14:13:15;;;;;;;10.43;9.33;;;;;;;;;;5051590;28;20567;-58
2024/01/29 14:15:40;;;;;;;12.13;9.40;;;;;;;;;;5070430;28;20439;-58
2024/01/29 14:18:05;;;;;;;10.98;8.27;;;;;;;;;;5071815;28;20017;-58
2024/01/29 14:20:31;;;;;;;15.27;10.55;;;;;;;;;;5068976;28;20064;-58
2024/01/29 14:22:57;;;;;;;10.20;8.57;;;;;;;;;;5073982;28;20020;-58
2024/01/29 14:25:23;;;;;;;9.90;8.65;;;;;;;;;;5052281;28;20475;-58
2024/01/29 14:27:48;;;;;;;12.48;10.18;;;;;;;;;;5051585;28;20591;-58